Time;durP1;ratioP1;P1;durP2;ratioP2;P2;SDS_P1;SDS_P2;PMS_P1;PMS_P2;Temp;Humidity;BMP_temperature;BMP_pressure;BME280_temperature;BME280_humidity;BME280_pressure;Samples;Min_cycle;Max_cycle;Signal;HPM_P1;HPM_P2
2023/03/22 00:00:11;;;;;;;56.17;31.70;;;9.70;99.90;;;;;;10392283;28;21063;-83
2023/03/22 00:05:14;;;;;;;56.87;34.30;;;9.70;99.90;;;;;;10391516;28;20785;-83
2023/03/22 00:10:16;;;;;;;54.70;32.67;;;9.60;99.90;;;;;;10392633;28;20638;-83
2023/03/22 00:15:19;;;;;;;52.13;28.27;;;9.60;99.90;;;;;;10385862;28;20250;-81
2023/03/22 00:20:22;;;;;;;52.87;32.60;;;9.70;99.90;;;;;;10400963;28;20258;-81
2023/03/22 00:25:25;;;;;;;54.67;33.07;;;9.60;99.90;;;;;;10392251;28;20671;-81
2023/03/22 00:30:28;;;;;;;57.30;32.27;;;9.50;99.90;;;;;;10409712;28;20281;-81
2023/03/22 00:35:30;;;;;;;46.60;29.63;;;9.60;99.90;;;;;;10407418;28;20289;-81
2023/03/22 00:40:33;;;;;;;45.13;28.27;;;9.60;99.90;;;;;;10391759;28;20317;-81
2023/03/22 00:45:36;;;;;;;50.93;32.40;;;9.60;99.90;;;;;;10388719;28;20255;-81
2023/03/22 00:50:40;;;;;;;58.70;34.03;;;9.60;99.90;;;;;;10387482;28;20244;-81
2023/03/22 00:55:42;;;;;;;50.23;33.07;;;9.60;99.90;;;;;;10381830;28;20305;-81
2023/03/22 01:01:13;;;;;;;55.57;33.40;;;9.70;99.90;;;;;;10369990;28;20263;-81
2023/03/22 01:06:17;;;;;;;52.33;33.20;;;9.70;99.90;;;;;;10364347;28;20337;-81
2023/03/22 01:11:20;;;;;;;56.30;33.20;;;9.70;99.90;;;;;;10385781;28;20298;-82
2023/03/22 01:16:23;;;;;;;54.00;32.53;;;9.70;99.90;;;;;;10388556;28;20309;-81
2023/03/22 01:21:26;;;;;;;52.20;31.07;;;9.70;99.90;;;;;;10388590;28;20259;-81
2023/03/22 01:26:28;;;;;;;54.53;31.80;;;9.70;99.90;;;;;;10386774;28;20227;-82
2023/03/22 01:31:31;;;;;;;48.73;30.47;;;9.80;99.90;;;;;;10388377;28;20235;-81
2023/03/22 01:36:33;;;;;;;54.27;31.57;;;9.90;99.90;;;;;;10389464;28;20691;-81
2023/03/22 01:41:37;;;;;;;50.53;31.60;;;9.80;99.90;;;;;;10382359;28;20258;-81
2023/03/22 01:46:48;;;;;;;53.90;33.27;;;9.80;99.90;;;;;;10388385;28;20321;-81
2023/03/22 01:51:57;;;;;;;38.57;22.30;;;9.90;99.90;;;;;;10408423;28;20684;-81
2023/03/22 01:57:37;;;;;;;47.97;29.10;;;9.80;99.90;;;;;;10390833;28;20263;-81
2023/03/22 02:02:47;;;;;;;54.93;34.00;;;9.70;99.90;;;;;;10351316;28;20767;-81
2023/03/22 02:07:58;;;;;;;42.07;25.77;;;9.80;99.90;;;;;;10349336;28;20630;-82
2023/03/22 02:13:18;;;;;;;46.87;28.47;;;9.80;99.90;;;;;;10349274;28;20294;-81
2023/03/22 02:18:34;;;;;;;53.33;32.83;;;9.80;99.90;;;;;;10355501;28;20363;-82
2023/03/22 02:23:52;;;;;;;51.37;31.27;;;9.80;99.90;;;;;;10374960;28;20263;-81
2023/03/22 02:29:33;;;;;;;52.37;31.10;;;9.80;99.90;;;;;;10375269;28;20258;-81
2023/03/22 02:34:38;;;;;;;41.17;26.50;;;9.80;99.90;;;;;;10356155;28;20777;-81
2023/03/22 02:39:55;;;;;;;52.27;33.37;;;9.80;99.90;;;;;;10363289;28;20585;-82
2023/03/22 02:45:07;;;;;;;45.90;29.67;;;9.70;99.90;;;;;;10376116;28;20250;-82
2023/03/22 02:50:21;;;;;;;41.83;27.67;;;9.70;99.90;;;;;;10356275;28;20251;-82
2023/03/22 02:55:36;;;;;;;45.97;29.70;;;9.60;99.90;;;;;;10366690;28;20236;-82
2023/03/22 03:00:40;;;;;;;47.33;29.67;;;9.60;99.90;;;;;;10412983;28;20286;-82
2023/03/22 03:05:54;;;;;;;43.10;27.67;;;9.50;99.90;;;;;;10396331;28;20290;-82
2023/03/22 03:10:56;;;;;;;43.57;27.37;;;9.50;99.90;;;;;;10361641;28;20631;-82
2023/03/22 03:16:01;;;;;;;47.10;27.70;;;9.50;99.90;;;;;;10388974;28;20273;-82
2023/03/22 03:21:16;;;;;;;44.63;27.77;;;9.60;99.90;;;;;;10371224;28;20255;-83
2023/03/22 03:26:34;;;;;;;44.47;29.30;;;9.50;99.90;;;;;;10354761;28;20200;-82
2023/03/22 03:31:46;;;;;;;44.87;27.67;;;9.60;99.90;;;;;;10372649;28;20627;-83
2023/03/22 03:37:08;;;;;;;50.90;29.07;;;9.50;99.90;;;;;;10373913;28;20231;-82
2023/03/22 03:42:16;;;;;;;38.33;24.97;;;9.50;99.90;;;;;;10379454;28;20266;-82
2023/03/22 03:47:20;;;;;;;46.63;28.63;;;9.50;99.90;;;;;;10393406;28;20267;-82
2023/03/22 03:52:25;;;;;;;46.60;27.70;;;9.50;99.90;;;;;;10412400;28;20235;-83
2023/03/22 03:57:27;;;;;;;45.37;28.77;;;9.40;99.90;;;;;;10393388;28;20235;-82
2023/03/22 04:02:30;;;;;;;47.63;29.87;;;9.50;99.90;;;;;;10394622;28;20239;-83
2023/03/22 04:07:34;;;;;;;42.33;26.97;;;9.50;99.90;;;;;;10393420;28;20301;-82
2023/03/22 04:12:37;;;;;;;48.80;28.00;;;9.40;99.90;;;;;;10362755;28;20236;-83
2023/03/22 04:17:52;;;;;;;45.07;28.63;;;9.50;99.90;;;;;;10391815;28;20258;-82
2023/03/22 04:22:59;;;;;;;45.30;27.50;;;9.50;99.90;;;;;;10360365;28;20232;-82
2023/03/22 04:28:03;;;;;;;39.03;25.60;;;9.50;99.90;;;;;;10361789;28;20245;-82
2023/03/22 04:33:11;;;;;;;44.70;28.60;;;9.50;99.90;;;;;;10395338;28;20223;-82
2023/03/22 04:38:32;;;;;;;35.50;24.00;;;9.50;99.90;;;;;;10368054;28;20263;-82
2023/03/22 04:43:38;;;;;;;54.93;32.37;;;9.50;99.90;;;;;;10380761;28;20759;-82
2023/03/22 04:48:44;;;;;;;41.40;25.47;;;9.50;99.90;;;;;;10393480;28;20289;-82
2023/03/22 04:53:47;;;;;;;42.70;26.73;;;9.50;99.90;;;;;;10376692;28;20243;-82
2023/03/22 04:58:50;;;;;;;47.37;29.27;;;9.60;99.90;;;;;;10384754;28;20255;-82
2023/03/22 05:03:53;;;;;;;35.33;22.20;;;9.60;99.90;;;;;;10391518;28;20207;-82
2023/03/22 05:08:58;;;;;;;37.37;24.53;;;9.60;99.90;;;;;;10392140;28;20251;-82
2023/03/22 05:14:02;;;;;;;36.67;22.17;;;9.80;99.90;;;;;;10338029;28;20235;-82
2023/03/22 05:19:12;;;;;;;35.20;22.10;;;10.10;99.90;;;;;;10386049;28;20316;-82
2023/03/22 05:24:20;;;;;;;43.90;28.03;;;10.10;99.90;;;;;;10357252;28;20283;-83
2023/03/22 05:29:23;;;;;;;47.17;31.47;;;10.20;99.90;;;;;;10373275;28;20238;-82
2023/03/22 05:34:44;;;;;;;40.90;23.67;;;10.10;99.90;;;;;;10391001;28;20628;-82
2023/03/22 05:40:08;;;;;;;30.13;18.40;;;10.30;99.90;;;;;;10390371;28;20778;-82
2023/03/22 05:45:16;;;;;;;43.67;29.50;;;10.50;99.90;;;;;;10387621;28;20651;-82
2023/03/22 05:50:23;;;;;;;40.63;26.13;;;10.60;99.90;;;;;;10355138;28;20225;-82
2023/03/22 05:55:29;;;;;;;41.90;26.33;;;10.50;99.90;;;;;;10374290;28;20236;-83
2023/03/22 06:00:34;;;;;;;46.00;29.07;;;10.70;99.90;;;;;;10388736;28;20318;-83
2023/03/22 06:05:55;;;;;;;39.90;23.60;;;10.60;99.90;;;;;;10409306;28;20239;-83
2023/03/22 06:11:10;;;;;;;39.50;23.63;;;10.70;99.90;;;;;;10361437;28;20326;-83
2023/03/22 06:16:15;;;;;;;22.87;13.57;;;11.10;99.90;;;;;;10388757;28;20302;-82
2023/03/22 06:21:18;;;;;;;31.23;19.40;;;11.40;99.90;;;;;;10390529;28;20267;-83
2023/03/22 06:26:21;;;;;;;18.67;12.87;;;11.80;99.90;;;;;;10389692;28;20743;-82
2023/03/22 06:31:24;;;;;;;26.40;17.50;;;12.00;99.90;;;;;;10378617;28;20236;-83
2023/03/22 06:36:31;;;;;;;17.97;12.60;;;12.30;99.90;;;;;;10358229;28;20242;-83
2023/03/22 06:41:45;;;;;;;29.83;19.10;;;12.50;99.90;;;;;;10356028;28;20256;-83
2023/03/22 06:46:47;;;;;;;12.13;9.13;;;12.50;99.90;;;;;;10379294;28;20262;-83
2023/03/22 06:52:09;;;;;;;18.33;12.03;;;12.50;99.90;;;;;;10408521;28;20326;-83
2023/03/22 06:57:12;;;;;;;15.90;11.30;;;13.10;99.90;;;;;;10366655;28;20259;-82
2023/03/22 07:02:14;;;;;;;18.60;13.43;;;13.20;99.90;;;;;;10396429;28;20258;-84
2023/03/22 07:07:35;;;;;;;23.40;16.97;;;13.60;99.90;;;;;;10373576;28;20220;-86
2023/03/22 07:12:38;;;;;;;18.97;14.10;;;13.50;99.90;;;;;;10368649;28;20236;-87
2023/03/22 07:17:46;;;;;;;30.50;18.70;;;13.40;99.90;;;;;;10358288;28;20232;-84
2023/03/22 07:22:50;;;;;;;26.37;18.23;;;13.40;99.90;;;;;;10357733;28;20256;-85
2023/03/22 07:27:55;;;;;;;26.03;17.83;;;13.20;99.90;;;;;;10377065;28;20270;-84
2023/03/22 07:32:59;;;;;;;17.23;12.47;;;13.00;99.90;;;;;;10361703;28;20235;-86
2023/03/22 07:38:05;;;;;;;26.27;17.70;;;13.30;99.90;;;;;;10395432;28;20266;-86
2023/03/22 07:43:10;;;;;;;38.57;21.80;;;13.20;99.90;;;;;;10392845;28;20262;-86
2023/03/22 07:48:24;;;;;;;53.10;30.50;;;13.20;99.90;;;;;;10380555;28;20262;-85
2023/03/22 07:53:56;;;;;;;22.00;11.83;;;13.20;99.90;;;;;;10277062;28;20238;-89
2023/03/22 07:59:00;;;;;;;16.57;11.40;;;13.30;99.90;;;;;;10259075;28;20282;-90
2023/03/22 08:04:03;;;;;;;16.03;10.40;;;13.80;99.90;;;;;;10230073;29;20243;-89
2023/03/22 08:09:18;;;;;;;24.03;16.63;;;13.90;99.90;;;;;;10229903;29;20672;-89
2023/03/22 08:14:22;;;;;;;21.93;15.20;;;14.00;99.90;;;;;;10241569;28;20703;-88
2023/03/22 08:19:39;;;;;;;16.13;11.30;;;13.80;99.90;;;;;;10308513;28;20278;-88
2023/03/22 08:24:45;;;;;;;18.77;13.33;;;14.30;99.90;;;;;;10269318;28;20240;-85
2023/03/22 08:29:59;;;;;;;12.80;8.70;;;14.60;99.90;;;;;;10348560;28;20700;-86
2023/03/22 08:35:05;;;;;;;16.80;11.93;;;15.20;99.90;;;;;;10391727;28;20212;-85
2023/03/22 08:40:09;;;;;;;8.27;5.43;;;15.30;99.90;;;;;;10390867;28;20651;-86
2023/03/22 08:45:16;;;;;;;12.37;9.97;;;15.80;99.90;;;;;;10352059;28;20261;-84
2023/03/22 08:50:27;;;;;;;20.30;14.10;;;15.50;99.90;;;;;;10350778;28;20239;-84
2023/03/22 08:55:46;;;;;;;16.07;10.80;;;15.40;99.90;;;;;;10375883;28;20203;-84
2023/03/22 09:01:05;;;;;;;17.03;12.20;;;15.60;99.90;;;;;;10348949;28;20294;-84
2023/03/22 09:06:17;;;;;;;11.00;7.93;;;16.00;99.70;;;;;;10385501;28;20228;-85
2023/03/22 09:11:22;;;;;;;11.07;8.13;;;16.10;99.40;;;;;;10355833;28;20239;-85
2023/03/22 09:16:24;;;;;;;15.20;11.27;;;16.20;98.60;;;;;;10368997;28;20241;-82
2023/03/22 09:21:30;;;;;;;18.40;9.90;;;16.10;98.90;;;;;;10353010;28;20313;-82
2023/03/22 09:26:42;;;;;;;10.10;8.33;;;16.30;97.80;;;;;;10350293;28;20657;-83
2023/03/22 09:31:47;;;;;;;13.27;10.50;;;16.40;97.40;;;;;;10350745;28;20232;-83
2023/03/22 09:37:05;;;;;;;11.80;9.83;;;16.50;96.80;;;;;;10376470;28;20694;-82
2023/03/22 09:42:29;;;;;;;8.80;7.00;;;16.70;95.90;;;;;;10391625;28;20286;-82
2023/03/22 09:47:43;;;;;;;12.20;8.40;;;16.90;95.10;;;;;;10391100;28;20270;-82
2023/03/22 09:52:48;;;;;;;6.87;5.60;;;17.00;94.30;;;;;;10375350;28;20236;-83
2023/03/22 09:58:20;;;;;;;10.83;8.83;;;17.20;93.60;;;;;;10375114;28;20228;-82
2023/03/22 10:03:29;;;;;;;6.73;4.90;;;17.10;93.60;;;;;;10376641;28;20313;-83
2023/03/22 10:08:59;;;;;;;8.83;6.53;;;17.10;93.40;;;;;;10368468;28;20248;-83
2023/03/22 10:14:26;;;;;;;7.43;6.23;;;17.20;93.20;;;;;;10386063;28;20289;-82
2023/03/22 10:19:35;;;;;;;7.47;6.33;;;17.20;93.00;;;;;;10395198;28;20279;-86
2023/03/22 10:24:41;;;;;;;8.63;6.30;;;17.20;93.20;;;;;;10400980;28;20224;-84
2023/03/22 10:29:55;;;;;;;10.47;8.00;;;17.10;93.20;;;;;;10370000;28;20258;-86
2023/03/22 10:34:58;;;;;;;8.73;6.67;;;17.20;92.60;;;;;;10408894;28;20258;-85
2023/03/22 10:40:06;;;;;;;9.10;7.20;;;17.30;92.20;;;;;;10411318;28;20258;-84
2023/03/22 10:45:14;;;;;;;11.23;7.90;;;17.40;92.00;;;;;;10374931;28;20308;-85
2023/03/22 10:50:27;;;;;;;8.30;6.63;;;17.30;91.80;;;;;;10380007;28;20252;-85
2023/03/22 10:55:29;;;;;;;11.67;7.03;;;17.30;91.70;;;;;;10406642;28;20286;-85
2023/03/22 11:00:32;;;;;;;8.63;7.60;;;17.20;91.90;;;;;;10355434;28;20722;-85
2023/03/22 11:05:35;;;;;;;15.20;10.10;;;17.30;91.80;;;;;;10383779;28;20246;-83
2023/03/22 11:10:37;;;;;;;9.43;5.93;;;17.30;91.60;;;;;;10389049;28;20235;-84
2023/03/22 11:15:49;;;;;;;10.37;7.53;;;17.40;91.50;;;;;;10380001;28;20608;-84
2023/03/22 11:21:04;;;;;;;7.30;4.10;;;17.40;91.00;;;;;;10395894;28;20361;-84
2023/03/22 11:26:10;;;;;;;7.63;6.07;;;17.40;91.00;;;;;;10414050;28;20188;-84
2023/03/22 11:31:15;;;;;;;7.20;5.77;;;17.40;90.70;;;;;;10376315;28;20243;-84
2023/03/22 11:36:18;;;;;;;10.80;9.57;;;17.40;90.70;;;;;;10373685;28;20237;-85
2023/03/22 11:41:26;;;;;;;9.67;8.43;;;17.50;90.10;;;;;;10372805;28;20257;-85
2023/03/22 11:46:30;;;;;;;6.30;5.53;;;17.50;89.90;;;;;;10410656;28;20629;-85
2023/03/22 11:51:36;;;;;;;9.63;8.27;;;17.40;90.50;;;;;;10396018;28;20239;-86
2023/03/22 11:56:42;;;;;;;10.20;7.80;;;17.50;90.90;;;;;;10356131;28;20294;-85
2023/03/22 12:01:50;;;;;;;9.13;7.07;;;17.40;91.50;;;;;;10382082;28;20700;-85
2023/03/22 12:06:57;;;;;;;9.20;6.93;;;17.40;90.90;;;;;;10359798;28;20237;-85
2023/03/22 12:12:02;;;;;;;7.83;6.17;;;17.40;90.80;;;;;;10411472;28;20308;-84
2023/03/22 12:17:17;;;;;;;6.67;4.90;;;17.40;91.00;;;;;;10410639;28;20240;-84
2023/03/22 12:22:31;;;;;;;9.13;6.43;;;17.50;90.30;;;;;;10397396;28;20267;-84
2023/03/22 12:27:38;;;;;;;6.90;5.97;;;17.60;89.70;;;;;;10394026;28;20231;-85
2023/03/22 12:32:52;;;;;;;9.23;7.43;;;17.50;88.00;;;;;;10428707;28;20231;-84
2023/03/22 12:38:00;;;;;;;7.23;6.30;;;17.60;88.80;;;;;;10375697;28;20307;-85
2023/03/22 12:43:59;;;;;;;7.43;5.77;;;17.60;89.30;;;;;;10391502;28;20252;-85
2023/03/22 12:49:20;;;;;;;7.43;6.37;;;17.50;87.50;;;;;;10279840;28;20328;-84
2023/03/22 12:54:25;;;;;;;9.77;7.33;;;17.40;89.90;;;;;;10218730;29;20690;-85
2023/03/22 12:59:30;;;;;;;6.47;5.53;;;17.40;90.60;;;;;;10203191;29;20305;-85
2023/03/22 13:04:35;;;;;;;9.47;7.23;;;17.50;90.20;;;;;;10210454;28;20295;-85
2023/03/22 13:09:49;;;;;;;10.07;7.03;;;17.40;90.30;;;;;;10216798;28;20275;-84
2023/03/22 13:14:59;;;;;;;9.67;6.97;;;17.20;90.70;;;;;;10205510;28;20993;-84
2023/03/22 13:20:10;;;;;;;7.17;5.93;;;17.00;90.30;;;;;;10227572;28;20329;-84
2023/03/22 13:25:17;;;;;;;9.43;6.90;;;17.00;90.80;;;;;;10331569;28;20639;-84
2023/03/22 13:30:23;;;;;;;6.77;5.40;;;16.90;91.10;;;;;;10361685;28;20231;-84
2023/03/22 13:35:49;;;;;;;7.20;5.57;;;16.90;91.40;;;;;;10354276;28;20255;-84
2023/03/22 13:40:55;;;;;;;8.03;6.60;;;17.00;91.40;;;;;;10367379;28;20261;-84
2023/03/22 13:46:10;;;;;;;6.90;5.63;;;17.00;90.80;;;;;;10404110;28;20261;-84
2023/03/22 13:51:33;;;;;;;3.37;3.00;;;17.20;92.00;;;;;;10422942;28;20292;-85
2023/03/22 13:56:55;;;;;;;11.20;6.57;;;17.40;91.50;;;;;;10367015;28;20283;-84
2023/03/22 14:01:57;;;;;;;4.87;4.47;;;17.50;90.10;;;;;;10350016;28;20247;-83
2023/03/22 14:07:24;;;;;;;3.97;3.40;;;17.50;90.80;;;;;;10354590;28;20227;-83
2023/03/22 14:12:52;;;;;;;5.87;3.93;;;17.60;90.90;;;;;;10389648;28;20289;-83
2023/03/22 14:18:05;;;;;;;4.03;3.60;;;17.60;90.60;;;;;;10391415;28;20231;-84
2023/03/22 14:23:21;;;;;;;5.33;3.77;;;17.70;91.10;;;;;;10392957;28;20662;-84
2023/03/22 14:28:33;;;;;;;5.23;4.40;;;17.80;91.00;;;;;;10349107;28;20232;-84
2023/03/22 14:33:36;;;;;;;4.33;3.63;;;17.80;91.10;;;;;;10366791;28;20238;-84
2023/03/22 14:38:42;;;;;;;7.47;3.80;;;17.80;91.30;;;;;;10361579;28;20230;-84
2023/03/22 14:43:46;;;;;;;5.77;5.23;;;17.80;91.50;;;;;;10392547;28;20255;-85
2023/03/22 14:48:53;;;;;;;7.27;5.07;;;17.70;91.00;;;;;;10368215;28;20289;-86
2023/03/22 14:53:56;;;;;;;5.30;3.90;;;17.70;91.10;;;;;;10356413;28;20278;-84
2023/03/22 14:59:02;;;;;;;4.63;4.17;;;17.60;91.40;;;;;;10388695;28;20965;-84
2023/03/22 15:04:10;;;;;;;4.77;4.27;;;17.60;91.90;;;;;;10388526;28;20685;-85
2023/03/22 15:09:16;;;;;;;4.53;3.97;;;17.50;91.10;;;;;;10373487;28;21017;-85
2023/03/22 15:14:18;;;;;;;5.07;4.00;;;17.60;91.60;;;;;;10373041;28;20284;-84
2023/03/22 15:19:21;;;;;;;7.00;4.03;;;17.60;90.60;;;;;;10348639;28;20230;-84
2023/03/22 15:24:33;;;;;;;3.47;2.57;;;17.40;92.00;;;;;;10349830;28;20285;-84
2023/03/22 15:29:34;;;;;;;3.90;3.07;;;17.40;94.80;;;;;;10380007;28;20230;-84
2023/03/22 15:34:37;;;;;;;5.43;3.43;;;17.60;94.30;;;;;;10395755;28;20660;-84
2023/03/22 15:39:42;;;;;;;4.47;4.07;;;17.60;94.20;;;;;;10395481;28;20678;-84
2023/03/22 15:45:12;;;;;;;4.70;3.27;;;17.80;93.00;;;;;;10375825;28;20706;-85
2023/03/22 15:50:18;;;;;;;9.53;6.67;;;17.90;93.80;;;;;;10384028;28;20638;-84
2023/03/22 15:55:25;;;;;;;16.93;10.67;;;17.80;92.40;;;;;;10392177;28;20188;-86
2023/03/22 16:00:30;;;;;;;19.40;9.70;;;17.50;90.00;;;;;;10366280;28;20260;-86
2023/03/22 16:05:34;;;;;;;7.00;6.23;;;17.20;91.70;;;;;;10379368;28;20234;-87
2023/03/22 16:10:39;;;;;;;10.80;6.00;;;17.00;92.70;;;;;;10355514;28;20240;-86
2023/03/22 16:15:40;;;;;;;12.10;7.57;;;16.80;93.90;;;;;;10383691;28;20227;-87
2023/03/22 16:20:42;;;;;;;10.87;6.60;;;16.60;94.60;;;;;;10362191;28;20441;-85
2023/03/22 16:25:44;;;;;;;7.73;5.93;;;16.30;95.70;;;;;;10390215;28;20231;-87
2023/03/22 16:30:46;;;;;;;9.67;7.23;;;16.10;96.80;;;;;;10391905;28;20709;-86
2023/03/22 16:35:47;;;;;;;10.00;9.00;;;16.00;97.60;;;;;;10394721;28;20610;-89
2023/03/22 16:40:51;;;;;;;14.40;10.43;;;15.80;98.00;;;;;;10341401;28;20717;-89
2023/03/22 16:45:52;;;;;;;8.07;6.37;;;15.70;98.70;;;;;;10403425;28;20533;-90
2023/03/22 16:50:54;;;;;;;8.97;7.27;;;15.50;99.70;;;;;;10390051;28;20293;-87
2023/03/22 16:55:56;;;;;;;13.60;11.10;;;15.40;99.90;;;;;;10345220;28;20294;-85
2023/03/22 17:00:58;;;;;;;13.90;8.20;;;15.10;99.60;;;;;;10406607;28;20321;-86
2023/03/22 17:06:00;;;;;;;13.13;9.37;;;15.30;99.60;;;;;;10363331;28;20294;-85
2023/03/22 17:11:01;;;;;;;21.80;14.77;;;15.10;99.20;;;;;;10391622;28;20299;-85
2023/03/22 17:16:03;;;;;;;16.83;13.83;;;14.90;99.30;;;;;;10358740;28;20277;-83
2023/03/22 17:21:05;;;;;;;22.43;13.93;;;14.40;99.90;;;;;;10349888;28;20776;-83
2023/03/22 17:26:08;;;;;;;20.23;11.73;;;13.90;99.90;;;;;;10002734;28;10000398;-82
2023/03/22 17:31:13;;;;;;;19.03;11.00;;;13.70;99.90;;;;;;10360257;28;20229;-84
2023/03/22 17:36:14;;;;;;;17.27;12.70;;;13.60;99.90;;;;;;10359930;28;20227;-84
2023/03/22 17:41:17;;;;;;;21.70;15.17;;;13.40;99.90;;;;;;10363156;28;20254;-84
2023/03/22 17:46:19;;;;;;;16.73;11.67;;;13.20;99.90;;;;;;10360235;28;20271;-84
2023/03/22 17:51:21;;;;;;;19.03;13.87;;;12.90;99.90;;;;;;10366462;28;20230;-85
2023/03/22 17:56:23;;;;;;;34.23;17.37;;;12.90;99.90;;;;;;10377706;28;20744;-85
2023/03/22 18:01:25;;;;;;;40.03;22.90;;;12.60;99.90;;;;;;10369061;28;20704;-87
2023/03/22 18:06:26;;;;;;;33.00;22.30;;;12.30;99.90;;;;;;10355403;28;20292;-84
2023/03/22 18:11:27;;;;;;;31.93;19.40;;;11.70;99.90;;;;;;10387406;28;20791;-85
2023/03/22 18:16:29;;;;;;;33.00;19.57;;;11.30;99.90;;;;;;10392238;28;20227;-84
2023/03/22 18:21:31;;;;;;;23.60;12.80;;;10.90;99.90;;;;;;10360690;28;20722;-81
2023/03/22 18:26:33;;;;;;;36.57;21.23;;;10.90;99.90;;;;;;10391567;28;20227;-81
2023/03/22 18:31:34;;;;;;;33.13;17.27;;;10.90;99.90;;;;;;10383434;28;20682;-82
2023/03/22 18:36:35;;;;;;;22.03;13.87;;;10.90;99.90;;;;;;10407792;28;20223;-82
2023/03/22 18:41:39;;;;;;;28.47;18.87;;;10.90;99.90;;;;;;10372658;28;20263;-83
2023/03/22 18:46:41;;;;;;;25.83;14.67;;;10.90;99.90;;;;;;10359775;28;20263;-82
2023/03/22 18:51:43;;;;;;;29.53;19.67;;;10.90;99.90;;;;;;10371511;28;20215;-83
2023/03/22 18:56:45;;;;;;;37.87;22.10;;;10.60;99.90;;;;;;10361498;28;20286;-82
2023/03/22 19:01:46;;;;;;;25.70;15.33;;;10.50;99.90;;;;;;10380989;28;20271;-83
2023/03/22 19:06:47;;;;;;;36.53;23.07;;;10.30;99.90;;;;;;10407060;28;20629;-82
2023/03/22 19:11:49;;;;;;;44.83;26.63;;;10.50;99.90;;;;;;10401713;28;20236;-85
2023/03/22 19:16:51;;;;;;;63.33;33.90;;;10.30;99.90;;;;;;10387428;28;20240;-84
2023/03/22 19:21:52;;;;;;;51.00;29.87;;;10.20;99.90;;;;;;10370759;28;20300;-84
2023/03/22 19:26:57;;;;;;;41.93;22.43;;;10.20;99.90;;;;;;10364329;28;20261;-84
2023/03/22 19:31:58;;;;;;;32.70;22.07;;;10.10;99.90;;;;;;10383428;28;20239;-83
2023/03/22 19:37:00;;;;;;;29.13;17.63;;;10.00;99.90;;;;;;10371528;28;20645;-87
2023/03/22 19:42:03;;;;;;;20.77;14.10;;;10.30;99.90;;;;;;10361764;28;20263;-84
2023/03/22 19:47:04;;;;;;;18.23;12.07;;;10.50;99.90;;;;;;10382722;28;20259;-84
2023/03/22 19:52:07;;;;;;;24.47;16.53;;;10.50;99.90;;;;;;10362393;28;20616;-84
2023/03/22 19:57:08;;;;;;;37.53;20.97;;;10.70;99.90;;;;;;10385561;28;20233;-83
2023/03/22 20:02:10;;;;;;;31.90;20.07;;;10.30;99.90;;;;;;10356784;28;20255;-83
2023/03/22 20:07:12;;;;;;;41.73;24.73;;;10.10;99.90;;;;;;10368109;28;20240;-83
2023/03/22 20:12:13;;;;;;;30.70;17.97;;;9.70;99.90;;;;;;10354279;28;20247;-84
2023/03/22 20:17:15;;;;;;;53.83;32.50;;;9.70;99.90;;;;;;10366100;28;20239;-84
2023/03/22 20:22:17;;;;;;;60.20;35.43;;;9.90;99.90;;;;;;10339230;28;20270;-84
2023/03/22 20:27:18;;;;;;;68.73;36.17;;;9.60;99.90;;;;;;10365430;28;20229;-85
2023/03/22 20:32:20;;;;;;;44.40;26.10;;;9.50;99.90;;;;;;10374715;28;20685;-83
2023/03/22 20:37:22;;;;;;;51.17;25.97;;;9.60;99.90;;;;;;10347128;28;20279;-83
2023/03/22 20:42:24;;;;;;;34.73;19.97;;;9.80;99.90;;;;;;10359386;28;20269;-83
2023/03/22 20:47:25;;;;;;;59.07;34.30;;;9.90;99.90;;;;;;10366046;28;20242;-84
2023/03/22 20:52:27;;;;;;;53.77;30.80;;;10.00;99.90;;;;;;10374134;28;20304;-84
2023/03/22 20:57:28;;;;;;;60.00;33.80;;;10.00;99.90;;;;;;10385494;28;20313;-83
2023/03/22 21:02:30;;;;;;;37.80;23.67;;;9.70;99.90;;;;;;10371414;28;20255;-84
2023/03/22 21:07:32;;;;;;;47.00;25.97;;;9.60;99.90;;;;;;10349044;28;20633;-84
2023/03/22 21:12:34;;;;;;;48.93;27.57;;;9.60;99.90;;;;;;10016025;28;10000192;-84
2023/03/22 21:17:36;;;;;;;73.47;37.50;;;9.80;99.90;;;;;;10336479;28;20241;-84
2023/03/22 21:22:38;;;;;;;58.13;33.30;;;9.70;99.90;;;;;;10357063;28;20308;-84
2023/03/22 21:27:40;;;;;;;90.63;47.53;;;9.60;99.90;;;;;;10381184;28;20292;-86
2023/03/22 21:32:43;;;;;;;38.53;21.73;;;9.70;99.90;;;;;;10360938;28;20696;-86
2023/03/22 21:37:44;;;;;;;73.77;41.50;;;9.70;99.90;;;;;;10384590;28;20233;-86
2023/03/22 21:42:52;;;;;;;46.17;25.10;;;9.80;99.90;;;;;;10362282;28;20261;-85
2023/03/22 21:47:56;;;;;;;54.53;32.73;;;9.80;99.90;;;;;;10349322;28;20267;-85
2023/03/22 21:52:58;;;;;;;53.03;30.07;;;9.70;99.90;;;;;;10364871;28;20289;-85
2023/03/22 21:57:59;;;;;;;39.37;24.73;;;9.70;99.90;;;;;;10352092;28;20274;-86
2023/03/22 22:03:02;;;;;;;34.30;22.57;;;9.70;99.90;;;;;;10347630;28;20256;-85
2023/03/22 22:08:04;;;;;;;30.43;19.70;;;9.80;99.90;;;;;;10363712;28;20233;-85
2023/03/22 22:13:06;;;;;;;36.63;22.23;;;9.80;99.90;;;;;;10378702;28;20706;-85
2023/03/22 22:18:07;;;;;;;32.60;21.67;;;9.80;99.90;;;;;;10331394;28;20228;-84
2023/03/22 22:23:08;;;;;;;27.80;19.83;;;9.70;99.90;;;;;;10364915;28;20258;-83
2023/03/22 22:28:10;;;;;;;29.33;18.10;;;9.80;99.90;;;;;;10358375;28;20281;-83
2023/03/22 22:33:11;;;;;;;22.53;16.43;;;10.00;99.90;;;;;;10375699;28;20690;-84
2023/03/22 22:38:13;;;;;;;36.33;21.97;;;10.10;99.90;;;;;;10368922;28;20293;-84
2023/03/22 22:43:16;;;;;;;24.67;16.37;;;10.20;99.90;;;;;;10369472;28;20284;-86
2023/03/22 22:48:17;;;;;;;36.73;23.77;;;10.20;99.90;;;;;;10360174;28;20257;-87
2023/03/22 22:53:19;;;;;;;34.87;23.07;;;10.30;99.90;;;;;;10398142;28;20267;-84
2023/03/22 22:58:20;;;;;;;26.87;16.63;;;10.20;99.90;;;;;;10390327;28;20212;-87
2023/03/22 23:03:27;;;;;;;39.83;23.23;;;10.20;99.90;;;;;;10356046;28;20318;-86
2023/03/22 23:08:29;;;;;;;32.97;20.47;;;10.20;99.90;;;;;;10356391;28;20225;-86
2023/03/22 23:13:30;;;;;;;28.50;18.70;;;10.20;99.90;;;;;;10359075;28;20227;-85
2023/03/22 23:18:32;;;;;;;22.40;13.67;;;10.30;99.90;;;;;;10407697;28;20285;-84
2023/03/22 23:23:33;;;;;;;22.40;14.07;;;10.60;99.90;;;;;;10389022;28;20716;-86
2023/03/22 23:28:36;;;;;;;32.03;19.87;;;10.80;99.90;;;;;;10373244;28;20269;-86
2023/03/22 23:33:40;;;;;;;27.17;17.40;;;10.80;99.90;;;;;;10411974;28;20273;-86
2023/03/22 23:38:41;;;;;;;34.07;20.10;;;10.90;99.90;;;;;;10396054;28;20289;-86
2023/03/22 23:43:44;;;;;;;30.07;18.47;;;10.90;99.90;;;;;;10393291;28;20256;-86
2023/03/22 23:48:45;;;;;;;16.13;11.77;;;11.10;99.90;;;;;;10376797;28;20252;-86
2023/03/22 23:53:47;;;;;;;24.83;15.30;;;11.20;99.90;;;;;;10371484;28;20312;-86
2023/03/22 23:58:50;;;;;;;16.67;11.23;;;11.50;99.90;;;;;;10386898;28;20241;-85
